createdAt,value
2018-06-23T00:00:56.863Z,9.60
2018-06-23T00:03:25.340Z,9.60
2018-06-23T00:05:54.105Z,9.60
2018-06-23T00:08:22.602Z,9.60
2018-06-23T00:10:51.139Z,9.60
2018-06-23T00:13:19.601Z,9.50
2018-06-23T00:15:48.056Z,9.50
2018-06-23T00:18:16.610Z,9.40
2018-06-23T00:20:45.054Z,9.40
2018-06-23T00:23:13.508Z,9.30
2018-06-23T00:25:47.306Z,9.30
2018-06-23T00:28:15.830Z,9.30
2018-06-23T00:30:44.290Z,9.30
2018-06-23T00:33:12.854Z,9.20
2018-06-23T00:35:41.367Z,9.10
2018-06-23T00:38:09.879Z,9.20
2018-06-23T00:40:38.436Z,9.10
2018-06-23T00:43:06.916Z,9.10
2018-06-23T00:45:35.404Z,9.00
2018-06-23T00:48:03.894Z,9.10
2018-06-23T00:50:32.396Z,9.10
2018-06-23T00:53:00.805Z,9.00
2018-06-23T00:55:29.359Z,9.00
2018-06-23T00:57:57.810Z,9.00
2018-06-23T01:00:26.215Z,9.00
2018-06-23T01:02:54.644Z,8.90
2018-06-23T01:05:23.069Z,8.90
2018-06-23T01:07:51.478Z,8.80
2018-06-23T01:10:19.897Z,8.80
2018-06-23T01:12:48.632Z,8.80
2018-06-23T01:15:17.123Z,8.80
2018-06-23T01:17:45.680Z,8.80
2018-06-23T01:20:14.186Z,8.70
2018-06-23T01:22:42.720Z,8.60
2018-06-23T01:25:11.153Z,8.70
2018-06-23T01:27:39.580Z,8.60
2018-06-23T01:30:08.648Z,8.60
2018-06-23T01:32:37.091Z,8.60
2018-06-23T01:35:05.560Z,8.50
2018-06-23T01:37:34.030Z,8.50
2018-06-23T01:40:02.471Z,8.50
2018-06-23T01:42:31.048Z,8.50
2018-06-23T01:44:59.492Z,8.50
2018-06-23T01:47:27.933Z,8.40
2018-06-23T01:49:56.349Z,8.40
2018-06-23T01:52:24.805Z,8.40
2018-06-23T01:54:53.242Z,8.50
2018-06-23T01:57:21.680Z,8.50
2018-06-23T01:59:50.148Z,8.40
2018-06-23T02:02:18.652Z,8.50
2018-06-23T02:04:47.146Z,8.50
2018-06-23T02:07:15.557Z,8.50
2018-06-23T02:09:44.030Z,8.50
2018-06-23T02:12:12.553Z,8.50
2018-06-23T02:14:46.457Z,8.50
2018-06-23T02:17:20.300Z,8.50
2018-06-23T02:19:54.102Z,8.60
2018-06-23T02:22:27.773Z,8.60
2018-06-23T02:25:01.442Z,8.50
2018-06-23T02:27:35.197Z,8.60
2018-06-23T02:30:08.906Z,8.60
2018-06-23T02:32:43.514Z,8.60
2018-06-23T02:35:12.068Z,8.60
2018-06-23T02:37:40.517Z,8.50
2018-06-23T02:40:09.030Z,8.50
2018-06-23T02:42:37.458Z,8.60
2018-06-23T02:45:06.656Z,8.50
2018-06-23T02:47:35.250Z,8.60
2018-06-23T02:50:03.780Z,8.60
2018-06-23T02:52:32.509Z,8.60
2018-06-23T02:55:01.258Z,8.60
2018-06-23T02:57:29.927Z,8.60
2018-06-23T02:59:58.388Z,8.60
2018-06-23T03:02:26.895Z,8.70
2018-06-23T03:04:55.863Z,8.60
2018-06-23T03:07:24.403Z,8.60
2018-06-23T03:09:52.847Z,8.60
2018-06-23T03:12:21.305Z,8.60
2018-06-23T03:14:49.805Z,8.60
2018-06-23T03:17:19.357Z,8.60
2018-06-23T03:19:49.182Z,8.60
2018-06-23T03:22:17.812Z,8.50
2018-06-23T03:24:46.297Z,8.50
2018-06-23T03:27:15.049Z,8.50
2018-06-23T03:32:12.291Z,8.50
2018-06-23T03:34:40.871Z,8.60
2018-06-23T03:37:09.319Z,8.60
2018-06-23T03:39:37.835Z,8.60
2018-06-23T03:42:06.455Z,8.60
2018-06-23T03:44:34.936Z,8.50
2018-06-23T03:47:03.555Z,8.60
2018-06-23T03:49:32.057Z,8.60
2018-06-23T03:52:00.475Z,8.60
2018-06-23T03:54:28.862Z,8.60
2018-06-23T03:56:57.281Z,8.70
2018-06-23T03:59:25.682Z,8.70
2018-06-23T04:01:54.094Z,8.80
2018-06-23T04:04:22.497Z,8.90
2018-06-23T04:06:50.954Z,8.90
2018-06-23T04:09:19.413Z,9.00
2018-06-23T04:11:47.827Z,9.10
2018-06-23T04:14:16.267Z,9.10
2018-06-23T04:16:44.760Z,9.20
2018-06-23T04:19:13.226Z,9.20
2018-06-23T04:21:41.661Z,9.10
2018-06-23T04:24:10.310Z,9.10
2018-06-23T04:29:06.858Z,9.00
2018-06-23T04:31:35.257Z,9.00
2018-06-23T04:34:04.550Z,9.20
2018-06-23T04:36:32.964Z,9.30
2018-06-23T04:39:01.373Z,9.40
2018-06-23T04:41:29.821Z,9.40
2018-06-23T04:43:58.213Z,9.50
2018-06-23T04:46:26.605Z,9.60
2018-06-23T04:48:55.054Z,9.80
2018-06-23T04:51:23.488Z,10.00
2018-06-23T04:53:51.959Z,10.20
2018-06-23T04:56:20.381Z,10.30
2018-06-23T04:58:48.834Z,10.70
2018-06-23T05:01:17.283Z,10.80
2018-06-23T05:03:45.995Z,10.90
2018-06-23T05:06:14.506Z,11.10
2018-06-23T05:08:42.929Z,11.00
2018-06-23T05:11:11.408Z,11.20
2018-06-23T05:13:39.873Z,11.20
2018-06-23T05:16:08.313Z,11.50
2018-06-23T05:18:36.724Z,11.50
2018-06-23T05:21:05.176Z,12.00
2018-06-23T05:23:33.677Z,12.50
2018-06-23T05:26:02.185Z,12.80
2018-06-23T05:28:30.623Z,13.10
2018-06-23T05:30:59.023Z,13.50
2018-06-23T05:33:27.433Z,13.70
2018-06-23T05:35:55.848Z,14.20
2018-06-23T05:38:24.383Z,14.30
2018-06-23T05:40:52.841Z,14.90
2018-06-23T05:43:21.473Z,15.20
2018-06-23T05:45:49.906Z,15.50
2018-06-23T05:48:18.360Z,15.30
2018-06-23T05:50:46.802Z,15.50
2018-06-23T05:53:15.257Z,16.10
2018-06-23T05:55:43.732Z,16.10
2018-06-23T05:58:12.145Z,16.30
2018-06-23T06:00:40.726Z,16.60
2018-06-23T06:03:09.179Z,17.20
2018-06-23T06:05:37.622Z,17.40
2018-06-23T06:08:06.046Z,17.40
2018-06-23T06:10:34.437Z,17.20
2018-06-23T06:13:02.900Z,17.20
2018-06-23T06:15:31.398Z,17.70
2018-06-23T06:17:59.916Z,17.90
2018-06-23T06:22:56.718Z,17.50
2018-06-23T06:25:25.188Z,18.00
2018-06-23T06:27:53.650Z,18.20
2018-06-23T06:30:22.108Z,17.80
2018-06-23T06:32:50.588Z,18.40
2018-06-23T06:35:19.029Z,18.60
2018-06-23T06:37:47.569Z,18.50
2018-06-23T06:40:16.035Z,19.00
2018-06-23T06:42:44.539Z,19.30
2018-06-23T06:45:12.997Z,19.40
2018-06-23T06:47:41.517Z,19.50
2018-06-23T06:50:09.929Z,19.10
2018-06-23T06:52:38.653Z,19.60
2018-06-23T06:55:07.249Z,20.30
2018-06-23T06:57:35.783Z,19.80
2018-06-23T07:00:04.953Z,19.30
2018-06-23T07:02:33.460Z,19.40
2018-06-23T07:05:02.754Z,19.20
2018-06-23T07:07:31.299Z,18.80
2018-06-23T07:09:59.835Z,18.00
2018-06-23T07:12:28.310Z,17.40
2018-06-23T07:14:56.813Z,17.50
2018-06-23T07:17:25.402Z,18.30
2018-06-23T07:19:53.835Z,19.20
2018-06-23T07:22:22.295Z,19.50
2018-06-23T07:24:50.736Z,20.10
2018-06-23T07:27:19.180Z,19.50
2018-06-23T07:29:47.640Z,19.60
2018-06-23T07:32:16.084Z,20.40
2018-06-23T07:34:44.605Z,21.10
2018-06-23T07:37:13.057Z,21.00
2018-06-23T07:39:41.697Z,21.30
2018-06-23T07:42:10.293Z,21.40
2018-06-23T07:44:38.760Z,21.10
2018-06-23T07:47:07.396Z,22.20
2018-06-23T07:49:35.859Z,21.60
2018-06-23T07:52:04.348Z,20.80
2018-06-23T07:54:32.904Z,20.10
2018-06-23T07:57:01.484Z,21.10
2018-06-23T07:59:30.133Z,20.30
2018-06-23T08:01:58.631Z,20.90
2018-06-23T08:04:27.200Z,20.80
2018-06-23T08:06:55.770Z,21.00
2018-06-23T08:09:24.349Z,20.40
2018-06-23T08:11:59.533Z,19.80
2018-06-23T08:14:28.073Z,19.20
2018-06-23T08:16:56.609Z,18.50
2018-06-23T08:19:25.161Z,18.80
2018-06-23T08:21:53.689Z,18.50
2018-06-23T08:24:22.204Z,18.20
2018-06-23T08:26:50.710Z,17.60
2018-06-23T08:29:19.324Z,17.50
2018-06-23T08:31:47.910Z,17.30
2018-06-23T08:34:16.538Z,17.80
2018-06-23T08:36:45.066Z,18.00
2018-06-23T08:39:13.584Z,17.80
2018-06-23T08:41:42.174Z,18.40
2018-06-23T08:44:10.650Z,19.80
2018-06-23T08:46:39.827Z,20.90
2018-06-23T08:49:13.368Z,20.60
2018-06-23T08:51:42.095Z,20.10
2018-06-23T08:54:10.548Z,19.40
2018-06-23T08:56:39.074Z,19.60
2018-06-23T08:59:07.539Z,19.70
2018-06-23T09:01:36.003Z,19.70
2018-06-23T09:04:04.574Z,18.90
2018-06-23T09:06:33.044Z,18.40
2018-06-23T09:09:01.998Z,18.40
2018-06-23T09:11:30.574Z,19.50
2018-06-23T09:13:59.169Z,20.40
2018-06-23T09:16:27.859Z,20.00
2018-06-23T09:18:56.427Z,19.00
2018-06-23T09:21:24.945Z,18.80
2018-06-23T09:23:53.605Z,18.70
2018-06-23T09:26:22.191Z,18.60
2018-06-23T09:28:50.691Z,18.30
2018-06-23T09:31:19.279Z,18.40
2018-06-23T09:33:47.821Z,18.30
2018-06-23T09:36:16.317Z,18.10
2018-06-23T09:38:45.046Z,18.30
2018-06-23T09:41:13.511Z,18.20
2018-06-23T09:43:41.988Z,18.20
2018-06-23T09:46:10.651Z,18.20
2018-06-23T09:48:39.292Z,18.10
2018-06-23T09:51:07.874Z,18.00
2018-06-23T09:53:36.401Z,18.20
2018-06-23T09:56:04.975Z,18.30
2018-06-23T09:58:33.628Z,18.50
2018-06-23T10:01:02.228Z,18.70
2018-06-23T10:03:30.807Z,18.80
2018-06-23T10:05:59.330Z,19.20
2018-06-23T10:08:27.871Z,19.40
2018-06-23T10:10:56.381Z,19.50
2018-06-23T10:13:24.984Z,19.50
2018-06-23T10:15:53.558Z,19.60
2018-06-23T10:18:22.023Z,19.20
2018-06-23T10:20:50.566Z,19.20
2018-06-23T10:23:19.140Z,19.80
2018-06-23T10:25:47.670Z,20.10
2018-06-23T10:28:16.338Z,20.00
2018-06-23T10:30:44.840Z,20.00
2018-06-23T10:33:13.404Z,19.70
2018-06-23T10:38:10.353Z,19.10
2018-06-23T10:40:39.094Z,19.30
2018-06-23T10:43:07.610Z,19.70
2018-06-23T10:45:36.165Z,20.40
2018-06-23T10:48:04.687Z,19.90
2018-06-23T10:50:33.207Z,19.40
2018-06-23T10:53:01.839Z,19.30
2018-06-23T10:55:30.382Z,18.90
2018-06-23T10:57:58.897Z,19.20
2018-06-23T11:00:27.578Z,18.70
2018-06-23T11:02:56.101Z,18.90
2018-06-23T11:05:24.574Z,19.10
2018-06-23T11:07:53.085Z,19.30
2018-06-23T11:10:21.600Z,19.20
2018-06-23T11:12:50.180Z,19.20
2018-06-23T11:15:18.751Z,19.40
2018-06-23T11:17:47.247Z,20.30
2018-06-23T11:20:15.925Z,21.80
2018-06-23T11:22:44.423Z,22.10
2018-06-23T11:25:12.899Z,21.80
2018-06-23T11:27:41.474Z,22.40
2018-06-23T11:30:20.263Z,23.10
2018-06-23T11:32:48.815Z,23.70
2018-06-23T11:35:17.337Z,22.70
2018-06-23T11:37:45.918Z,22.30
2018-06-23T11:40:14.469Z,22.50
2018-06-23T11:42:42.892Z,22.20
2018-06-23T11:45:11.355Z,23.00
2018-06-23T11:47:39.860Z,23.80
2018-06-23T11:50:08.412Z,23.00
2018-06-23T11:52:37.053Z,23.00
2018-06-23T11:55:05.751Z,22.60
2018-06-23T11:57:34.264Z,22.00
2018-06-23T12:00:02.886Z,21.20
2018-06-23T12:02:31.427Z,20.60
2018-06-23T12:05:00.214Z,21.10
2018-06-23T12:07:28.939Z,22.50
2018-06-23T12:09:57.726Z,23.80
2018-06-23T12:12:26.256Z,25.50
2018-06-23T12:14:54.912Z,25.50
2018-06-23T12:17:23.435Z,24.40
2018-06-23T12:19:51.907Z,24.80
2018-06-23T12:22:20.377Z,25.00
2018-06-23T12:24:48.870Z,25.30
2018-06-23T12:27:17.368Z,24.10
2018-06-23T12:29:45.884Z,23.40
2018-06-23T12:32:14.436Z,23.00
2018-06-23T12:34:42.876Z,21.90
2018-06-23T12:37:11.322Z,22.80
2018-06-23T12:39:39.911Z,24.40
2018-06-23T12:42:08.386Z,24.60
2018-06-23T12:44:36.853Z,24.40
2018-06-23T12:47:05.670Z,23.40
2018-06-23T12:49:34.194Z,22.90
2018-06-23T12:52:02.647Z,22.10
2018-06-23T12:54:31.464Z,23.00
2018-06-23T12:57:00.411Z,24.30
2018-06-23T12:59:28.940Z,23.90
2018-06-23T13:01:57.431Z,23.40
2018-06-23T13:04:25.988Z,22.30
2018-06-23T13:06:54.459Z,22.40
2018-06-23T13:09:23.032Z,21.90
2018-06-23T13:11:51.575Z,22.60
2018-06-23T13:14:20.186Z,22.30
2018-06-23T13:16:48.725Z,23.00
2018-06-23T13:19:17.157Z,23.70
2018-06-23T13:21:45.779Z,22.60
2018-06-23T13:24:14.272Z,21.70
2018-06-23T13:26:42.767Z,21.40
2018-06-23T13:29:11.200Z,22.30
2018-06-23T13:31:39.723Z,22.70
2018-06-23T13:34:08.288Z,21.90
2018-06-23T13:36:36.947Z,21.30
2018-06-23T13:39:07.947Z,21.60
2018-06-23T13:41:36.649Z,22.70
2018-06-23T13:44:05.281Z,23.00
2018-06-23T13:46:33.867Z,23.10
2018-06-23T13:49:02.631Z,22.20
2018-06-23T13:51:31.084Z,21.80
2018-06-23T13:53:59.615Z,21.50
2018-06-23T13:56:28.139Z,21.60
2018-06-23T13:58:56.625Z,21.50
2018-06-23T14:01:25.144Z,21.90
2018-06-23T14:03:53.605Z,21.20
2018-06-23T14:06:22.141Z,20.70
2018-06-23T14:08:50.584Z,20.70
2018-06-23T14:11:19.079Z,20.80
2018-06-23T14:13:47.710Z,20.80
2018-06-23T14:16:16.374Z,20.90
2018-06-23T14:18:44.928Z,21.30
2018-06-23T14:21:13.456Z,21.80
2018-06-23T14:23:41.981Z,21.90
2018-06-23T14:26:10.471Z,21.90
2018-06-23T14:28:39.003Z,21.90
2018-06-23T14:31:07.577Z,21.70
2018-06-23T14:33:36.072Z,21.70
2018-06-23T14:36:04.621Z,21.30
2018-06-23T14:38:33.149Z,21.10
2018-06-23T14:41:01.656Z,20.80
2018-06-23T14:43:30.117Z,20.50
2018-06-23T14:45:58.578Z,20.30
2018-06-23T14:48:27.057Z,20.00
2018-06-23T14:50:55.528Z,19.90
2018-06-23T14:53:24.063Z,19.40
2018-06-23T14:55:52.605Z,19.30
2018-06-23T14:58:21.084Z,19.10
2018-06-23T15:00:49.584Z,19.10
2018-06-23T15:03:18.116Z,19.10
2018-06-23T15:05:46.765Z,19.20
2018-06-23T15:08:26.427Z,19.20
2018-06-23T15:11:06.358Z,19.20
2018-06-23T15:13:34.941Z,19.30
2018-06-23T15:16:03.767Z,19.20
2018-06-23T15:18:32.391Z,19.30
2018-06-23T15:21:00.986Z,19.50
2018-06-23T15:23:29.575Z,19.60
2018-06-23T15:25:58.337Z,19.90
2018-06-23T15:28:26.853Z,20.00
2018-06-23T15:30:55.604Z,20.00
2018-06-23T15:33:24.263Z,19.70
2018-06-23T15:35:53.058Z,19.50
2018-06-23T15:38:21.672Z,19.50
2018-06-23T15:43:18.445Z,19.20
2018-06-23T15:45:47.284Z,19.10
2018-06-23T15:48:15.877Z,19.10
2018-06-23T15:50:44.346Z,19.10
2018-06-23T15:53:12.857Z,19.00
2018-06-23T15:55:47.903Z,19.10
2018-06-23T15:58:16.361Z,19.30
2018-06-23T16:00:44.906Z,19.30
2018-06-23T16:03:13.463Z,19.40
2018-06-23T16:05:41.941Z,19.10
2018-06-23T16:08:10.423Z,19.10
2018-06-23T16:10:38.891Z,19.10
2018-06-23T16:13:07.387Z,19.10
2018-06-23T16:15:35.940Z,19.10
2018-06-23T16:18:04.750Z,19.00
2018-06-23T16:20:33.352Z,19.00
2018-06-23T16:23:01.968Z,18.90
2018-06-23T16:25:30.482Z,18.80
2018-06-23T16:27:58.982Z,18.50
2018-06-23T16:30:27.454Z,18.50
2018-06-23T16:32:55.994Z,18.40
2018-06-23T16:35:25.218Z,18.50
2018-06-23T16:37:53.277Z,18.50
2018-06-23T16:40:21.775Z,18.50
2018-06-23T16:42:50.283Z,18.40
2018-06-23T16:45:18.773Z,18.40
2018-06-23T16:47:47.238Z,18.40
2018-06-23T16:50:15.717Z,18.30
2018-06-23T16:52:44.239Z,18.50
2018-06-23T16:55:12.761Z,18.60
2018-06-23T16:57:41.338Z,18.50
2018-06-23T17:00:10.188Z,18.30
2018-06-23T17:02:38.777Z,18.30
2018-06-23T17:05:07.463Z,18.40
2018-06-23T17:07:36.023Z,18.20
2018-06-23T17:10:04.648Z,18.20
2018-06-23T17:12:33.196Z,18.10
2018-06-23T17:15:01.790Z,18.00
2018-06-23T17:17:30.317Z,17.90
2018-06-23T17:19:58.814Z,17.80
2018-06-23T17:22:27.393Z,17.80
2018-06-23T17:24:55.890Z,17.70
2018-06-23T17:27:24.539Z,17.70
2018-06-23T17:29:52.991Z,17.70
2018-06-23T17:32:21.451Z,17.60
2018-06-23T17:34:50.019Z,17.60
2018-06-23T17:37:18.646Z,17.50
2018-06-23T17:39:47.230Z,17.50
2018-06-23T17:42:15.903Z,17.40
2018-06-23T17:44:44.513Z,17.40
2018-06-23T17:47:13.133Z,17.40
2018-06-23T17:49:41.914Z,17.40
2018-06-23T17:52:16.926Z,17.30
2018-06-23T17:54:45.522Z,17.30
2018-06-23T17:57:14.177Z,17.30
2018-06-23T17:59:42.665Z,17.10
2018-06-23T18:02:11.391Z,17.00
2018-06-23T18:04:39.974Z,16.90
2018-06-23T18:07:08.492Z,16.80
2018-06-23T18:09:37.106Z,16.80
2018-06-23T18:12:05.903Z,16.70
2018-06-23T18:14:34.368Z,16.70
2018-06-23T18:17:02.915Z,16.70
2018-06-23T18:19:31.619Z,16.70
2018-06-23T18:22:00.340Z,16.60
2018-06-23T18:24:29.159Z,16.60
2018-06-23T18:26:59.032Z,16.60
2018-06-23T18:29:28.438Z,16.60
2018-06-23T18:31:57.030Z,16.60
2018-06-23T18:34:26.819Z,16.50
2018-06-23T18:36:55.359Z,16.50
2018-06-23T18:39:23.909Z,16.40
2018-06-23T18:41:53.472Z,16.40
2018-06-23T18:44:22.016Z,16.30
2018-06-23T18:46:50.567Z,16.30
2018-06-23T18:49:19.150Z,16.20
2018-06-23T18:51:48.583Z,16.20
2018-06-23T18:54:17.060Z,16.20
2018-06-23T18:56:45.686Z,16.20
2018-06-23T18:59:14.265Z,16.10
2018-06-23T19:01:42.816Z,16.10
2018-06-23T19:04:11.304Z,16.10
2018-06-23T19:06:39.762Z,16.00
2018-06-23T19:09:11.025Z,16.00
2018-06-23T19:11:39.703Z,16.00
2018-06-23T19:14:08.655Z,15.90
2018-06-23T19:16:37.292Z,15.90
2018-06-23T19:19:06.779Z,15.90
2018-06-23T19:24:05.050Z,15.80
2018-06-23T19:26:33.875Z,15.80
2018-06-23T19:29:02.611Z,15.80
2018-06-23T19:31:31.171Z,15.70
2018-06-23T19:33:59.787Z,15.70
2018-06-23T19:36:28.371Z,15.70
2018-06-23T19:38:56.836Z,15.60
2018-06-23T19:41:27.732Z,15.60
2018-06-23T19:43:56.380Z,15.60
2018-06-23T19:46:24.875Z,15.60
2018-06-23T19:48:53.462Z,15.60
2018-06-23T19:53:50.477Z,15.50
2018-06-23T19:56:19.127Z,15.50
2018-06-23T19:58:47.666Z,15.50
2018-06-23T20:01:16.287Z,15.40
2018-06-23T20:03:44.867Z,15.40
2018-06-23T20:06:13.504Z,15.40
2018-06-23T20:08:42.066Z,15.40
2018-06-23T20:11:10.654Z,15.40
2018-06-23T20:13:39.371Z,15.30
2018-06-23T20:16:08.000Z,15.20
2018-06-23T20:18:36.530Z,15.20
2018-06-23T20:21:05.075Z,15.00
2018-06-23T20:23:33.662Z,14.90
2018-06-23T20:26:02.242Z,14.80
2018-06-23T20:28:30.884Z,14.80
2018-06-23T20:30:59.549Z,14.70
2018-06-23T20:33:28.248Z,14.70
2018-06-23T20:35:56.877Z,14.50
2018-06-23T20:38:25.601Z,14.50
2018-06-23T20:40:54.315Z,14.50
2018-06-23T20:43:22.894Z,14.50
2018-06-23T20:45:51.464Z,14.60
2018-06-23T20:48:20.036Z,14.50
2018-06-23T20:50:48.647Z,14.50
2018-06-23T20:53:17.276Z,14.30
2018-06-23T20:55:45.923Z,14.30
2018-06-23T20:58:15.492Z,14.30
2018-06-23T21:00:44.341Z,14.30
2018-06-23T21:03:12.988Z,14.30
2018-06-23T21:05:41.501Z,14.30
2018-06-23T21:08:10.172Z,14.20
2018-06-23T21:10:41.353Z,14.30
2018-06-23T21:13:10.237Z,14.30
2018-06-23T21:15:38.999Z,14.30
2018-06-23T21:18:07.915Z,14.30
2018-06-23T21:20:36.538Z,14.20
2018-06-23T21:23:05.296Z,14.20
2018-06-23T21:25:34.092Z,14.20
2018-06-23T21:28:02.818Z,14.10
2018-06-23T21:30:31.920Z,14.20
2018-06-23T21:33:00.680Z,14.10
2018-06-23T21:35:29.311Z,14.20
2018-06-23T21:37:57.995Z,14.20
2018-06-23T21:40:26.665Z,14.20
2018-06-23T21:42:55.441Z,14.10
2018-06-23T21:45:24.204Z,14.20
2018-06-23T21:47:52.823Z,14.10
2018-06-23T21:50:21.383Z,14.20
2018-06-23T21:52:49.955Z,14.20
2018-06-23T21:55:18.604Z,14.20
2018-06-23T21:57:47.099Z,14.20
2018-06-23T22:00:37.312Z,14.20
2018-06-23T22:03:07.256Z,14.20
2018-06-23T22:05:35.825Z,14.10
2018-06-23T22:08:04.717Z,14.00
2018-06-23T22:10:33.184Z,14.10
2018-06-23T22:13:01.697Z,14.10
2018-06-23T22:15:30.295Z,14.00
2018-06-23T22:17:58.809Z,14.00
2018-06-23T22:20:27.473Z,14.00
2018-06-23T22:22:56.015Z,14.00
2018-06-23T22:25:24.500Z,14.00
2018-06-23T22:27:52.957Z,13.90
2018-06-23T22:30:22.070Z,14.00
2018-06-23T22:32:50.782Z,14.00
2018-06-23T22:35:19.709Z,14.00
2018-06-23T22:37:48.246Z,14.00
2018-06-23T22:40:16.734Z,14.00
2018-06-23T22:42:45.193Z,14.00
2018-06-23T22:45:13.663Z,14.00
2018-06-23T22:47:42.172Z,14.10
2018-06-23T22:50:11.125Z,14.00
2018-06-23T22:52:39.705Z,14.00
2018-06-23T22:55:09.263Z,14.10
2018-06-23T22:57:37.768Z,13.90
2018-06-23T23:00:09.253Z,14.00
2018-06-23T23:02:37.724Z,13.90
2018-06-23T23:05:06.654Z,13.90
2018-06-23T23:07:35.146Z,13.80
2018-06-23T23:10:03.946Z,13.80
2018-06-23T23:12:32.399Z,13.80
2018-06-23T23:15:00.839Z,13.80
2018-06-23T23:17:29.390Z,13.80
2018-06-23T23:19:57.865Z,13.80
2018-06-23T23:22:26.352Z,13.80
2018-06-23T23:24:54.945Z,13.90
2018-06-23T23:27:23.504Z,13.90
2018-06-23T23:29:51.995Z,13.90
2018-06-23T23:32:20.495Z,13.90
2018-06-23T23:34:49.141Z,13.90
2018-06-23T23:37:17.631Z,13.90
2018-06-23T23:39:46.089Z,13.90
2018-06-23T23:42:14.482Z,14.00
2018-06-23T23:44:42.879Z,13.90
2018-06-23T23:47:11.378Z,13.90
2018-06-23T23:49:39.810Z,13.90
2018-06-23T23:52:08.942Z,13.90
2018-06-23T23:54:37.378Z,13.90
2018-06-23T23:57:05.792Z,13.90
2018-06-23T23:59:34.200Z,13.90
